createdAt,value
2023-07-24T00:00:04.698Z,100.00
2023-07-24T00:02:31.256Z,100.00
2023-07-24T00:04:57.797Z,100.00
2023-07-24T00:07:24.457Z,100.00
2023-07-24T00:09:50.989Z,100.00
2023-07-24T00:12:17.525Z,100.00
2023-07-24T00:14:44.035Z,100.00
2023-07-24T00:17:10.848Z,100.00
2023-07-24T00:19:37.328Z,100.00
2023-07-24T00:22:03.940Z,100.00
2023-07-24T00:24:31.225Z,100.00
2023-07-24T00:26:58.282Z,100.00
2023-07-24T00:29:24.756Z,100.00
2023-07-24T00:31:51.227Z,100.00
2023-07-24T00:34:17.751Z,100.00
2023-07-24T00:36:44.259Z,100.00
2023-07-24T00:39:10.839Z,100.00
2023-07-24T00:41:37.384Z,100.00
2023-07-24T00:44:04.030Z,100.00
2023-07-24T00:46:34.592Z,100.00
2023-07-24T00:49:02.800Z,100.00
2023-07-24T00:51:29.528Z,100.00
2023-07-24T00:54:04.002Z,100.00
2023-07-24T00:56:32.775Z,100.00
2023-07-24T00:59:00.681Z,100.00
2023-07-24T01:01:27.627Z,100.00
2023-07-24T01:03:55.064Z,100.00
2023-07-24T01:10:02.397Z,100.00
2023-07-24T01:12:36.489Z,100.00
2023-07-24T01:15:58.461Z,100.00
2023-07-24T01:18:25.762Z,100.00
2023-07-24T01:20:56.528Z,100.00
2023-07-24T01:24:04.360Z,100.00
2023-07-24T01:26:31.341Z,100.00
2023-07-24T01:28:58.322Z,100.00
2023-07-24T01:31:24.841Z,100.00
2023-07-24T01:33:51.371Z,100.00
2023-07-24T01:36:19.685Z,100.00
2023-07-24T01:38:48.243Z,100.00
2023-07-24T01:41:16.097Z,100.00
2023-07-24T01:43:42.648Z,100.00
2023-07-24T01:46:09.779Z,100.00
2023-07-24T01:48:36.521Z,100.00
2023-07-24T01:51:03.117Z,100.00
2023-07-24T01:53:29.629Z,100.00
2023-07-24T01:55:56.094Z,100.00
2023-07-24T01:58:22.620Z,100.00
2023-07-24T02:00:49.210Z,100.00
2023-07-24T02:03:15.835Z,100.00
2023-07-24T02:05:42.849Z,100.00
2023-07-24T02:08:09.486Z,100.00
2023-07-24T02:10:38.822Z,100.00
2023-07-24T02:13:07.573Z,100.00
2023-07-24T02:15:34.177Z,100.00
2023-07-24T02:18:00.716Z,100.00
2023-07-24T02:20:27.321Z,100.00
2023-07-24T02:22:53.871Z,100.00
2023-07-24T02:25:20.317Z,100.00
2023-07-24T02:27:46.801Z,100.00
2023-07-24T02:30:13.296Z,100.00
2023-07-24T02:32:39.768Z,100.00
2023-07-24T02:35:06.952Z,100.00
2023-07-24T02:37:33.411Z,100.00
2023-07-24T02:39:59.898Z,100.00
2023-07-24T02:42:26.372Z,100.00
2023-07-24T02:44:55.010Z,100.00
2023-07-24T02:47:21.509Z,100.00
2023-07-24T02:49:48.096Z,100.00
2023-07-24T02:52:14.571Z,100.00
2023-07-24T02:54:41.107Z,100.00
2023-07-24T02:57:07.585Z,100.00
2023-07-24T02:59:36.619Z,100.00
2023-07-24T03:02:03.280Z,100.00
2023-07-24T03:04:29.835Z,100.00
2023-07-24T03:06:56.412Z,100.00
2023-07-24T03:09:22.950Z,100.00
2023-07-24T03:11:49.433Z,100.00
2023-07-24T03:14:15.962Z,100.00
2023-07-24T03:16:42.485Z,100.00
2023-07-24T03:19:09.053Z,100.00
2023-07-24T03:21:35.924Z,100.00
2023-07-24T03:24:02.507Z,100.00
2023-07-24T03:26:29.310Z,100.00
2023-07-24T03:28:56.136Z,100.00
2023-07-24T03:31:22.680Z,100.00
2023-07-24T03:33:49.202Z,100.00
2023-07-24T03:36:15.755Z,100.00
2023-07-24T03:38:42.224Z,100.00
2023-07-24T03:41:08.741Z,100.00
2023-07-24T03:43:35.430Z,100.00
2023-07-24T03:46:01.892Z,100.00
2023-07-24T03:48:28.416Z,100.00
2023-07-24T03:51:01.528Z,100.00
2023-07-24T03:53:29.187Z,100.00
2023-07-24T03:55:55.907Z,100.00
2023-07-24T03:58:22.474Z,100.00
2023-07-24T04:00:49.028Z,100.00
2023-07-24T04:03:16.574Z,100.00
2023-07-24T04:05:43.193Z,100.00
2023-07-24T04:08:09.697Z,100.00
2023-07-24T04:10:36.309Z,100.00
2023-07-24T04:13:02.762Z,100.00
2023-07-24T04:15:30.212Z,100.00
2023-07-24T04:17:56.773Z,100.00
2023-07-24T04:20:23.275Z,100.00
2023-07-24T04:22:49.848Z,100.00
2023-07-24T04:25:16.830Z,100.00
2023-07-24T04:27:43.283Z,100.00
2023-07-24T04:30:10.111Z,100.00
2023-07-24T04:32:36.646Z,100.00
2023-07-24T04:35:03.289Z,100.00
2023-07-24T04:37:30.623Z,100.00
2023-07-24T04:39:57.112Z,100.00
2023-07-24T04:42:23.744Z,100.00
2023-07-24T04:44:51.194Z,100.00
2023-07-24T04:47:18.641Z,100.00
2023-07-24T04:49:45.126Z,100.00
2023-07-24T04:52:11.606Z,100.00
2023-07-24T04:54:38.073Z,100.00
2023-07-24T04:57:04.991Z,100.00
2023-07-24T04:59:31.459Z,100.00
2023-07-24T05:01:58.010Z,100.00
2023-07-24T05:04:24.548Z,100.00
2023-07-24T05:06:51.871Z,100.00
2023-07-24T05:09:18.404Z,100.00
2023-07-24T05:11:45.875Z,100.00
2023-07-24T05:14:12.493Z,100.00
2023-07-24T05:16:39.131Z,100.00
2023-07-24T05:19:05.657Z,100.00
2023-07-24T05:21:32.252Z,100.00
2023-07-24T05:23:58.714Z,100.00
2023-07-24T05:26:25.732Z,100.00
2023-07-24T05:28:54.573Z,100.00
2023-07-24T05:31:21.238Z,100.00
2023-07-24T05:33:48.531Z,100.00
2023-07-24T05:36:15.082Z,100.00
2023-07-24T05:38:41.556Z,100.00
2023-07-24T05:41:08.109Z,100.00
2023-07-24T05:43:34.618Z,100.00
2023-07-24T05:46:01.186Z,100.00
2023-07-24T05:48:27.794Z,100.00
2023-07-24T05:50:54.308Z,100.00
2023-07-24T05:53:20.845Z,100.00
2023-07-24T05:55:47.380Z,100.00
2023-07-24T05:58:13.879Z,100.00
2023-07-24T06:00:40.576Z,100.00
2023-07-24T06:03:08.553Z,100.00
2023-07-24T06:05:35.900Z,100.00
2023-07-24T06:08:02.482Z,100.00
2023-07-24T06:10:28.998Z,100.00
2023-07-24T06:12:55.609Z,100.00
2023-07-24T06:15:22.324Z,100.00
2023-07-24T06:17:50.925Z,100.00
2023-07-24T06:20:19.084Z,100.00
2023-07-24T06:22:45.917Z,100.00
2023-07-24T06:25:12.498Z,100.00
2023-07-24T06:27:39.219Z,100.00
2023-07-24T06:30:15.176Z,100.00
2023-07-24T06:32:43.307Z,100.00
2023-07-24T06:35:10.146Z,100.00
2023-07-24T06:37:36.758Z,100.00
2023-07-24T06:40:03.903Z,100.00
2023-07-24T06:42:30.504Z,100.00
2023-07-24T06:44:57.014Z,100.00
2023-07-24T06:47:23.602Z,100.00
2023-07-24T06:49:50.100Z,100.00
2023-07-24T06:52:16.629Z,100.00
2023-07-24T06:54:43.269Z,100.00
2023-07-24T06:57:09.849Z,100.00
2023-07-24T06:59:36.580Z,100.00
2023-07-24T07:02:03.276Z,100.00
2023-07-24T07:04:29.776Z,100.00
2023-07-24T07:06:56.567Z,100.00
2023-07-24T07:09:23.486Z,100.00
2023-07-24T07:11:50.221Z,100.00
2023-07-24T07:14:16.924Z,100.00
2023-07-24T07:16:43.576Z,100.00
2023-07-24T07:19:13.881Z,100.00
2023-07-24T07:21:40.356Z,100.00
2023-07-24T07:24:06.996Z,100.00
2023-07-24T07:26:34.269Z,100.00
2023-07-24T07:29:00.851Z,100.00
2023-07-24T07:31:27.486Z,100.00
2023-07-24T07:33:53.987Z,99.16
2023-07-24T07:36:20.480Z,95.25
2023-07-24T07:38:46.937Z,91.08
2023-07-24T07:41:14.282Z,87.09
2023-07-24T07:43:40.903Z,79.44
2023-07-24T07:46:07.445Z,78.05
2023-07-24T07:48:34.137Z,76.33
2023-07-24T07:51:00.715Z,74.80
2023-07-24T07:53:27.266Z,73.32
2023-07-24T07:55:58.216Z,69.91
2023-07-24T07:58:29.760Z,65.85
2023-07-24T08:00:56.369Z,65.21
2023-07-24T08:03:23.334Z,64.23
2023-07-24T08:05:49.961Z,64.07
2023-07-24T08:08:16.547Z,64.66
2023-07-24T08:10:43.091Z,63.95
2023-07-24T08:13:09.618Z,64.22
2023-07-24T08:15:37.908Z,63.29
2023-07-24T08:18:06.028Z,64.49
2023-07-24T08:20:35.714Z,62.85
2023-07-24T08:23:02.370Z,61.46
2023-07-24T08:25:28.866Z,59.35
2023-07-24T08:30:27.564Z,59.79
2023-07-24T08:32:55.162Z,61.90
2023-07-24T08:35:21.855Z,62.67
2023-07-24T08:37:48.348Z,64.97
2023-07-24T08:40:16.939Z,66.30
2023-07-24T08:42:49.858Z,68.37
2023-07-24T08:45:17.169Z,70.10
2023-07-24T08:47:45.389Z,69.67
2023-07-24T08:50:13.374Z,67.53
2023-07-24T08:52:41.565Z,65.74
2023-07-24T08:55:08.928Z,67.04
2023-07-24T08:57:37.151Z,67.60
2023-07-24T09:00:06.199Z,67.13
2023-07-24T09:02:34.576Z,66.20
2023-07-24T09:05:04.555Z,63.11
2023-07-24T09:07:31.992Z,61.64
2023-07-24T09:09:58.836Z,60.41
2023-07-24T09:12:25.495Z,61.05
2023-07-24T09:15:03.394Z,59.53
2023-07-24T09:17:32.222Z,56.74
2023-07-24T09:19:59.316Z,55.52
2023-07-24T09:22:28.990Z,55.25
2023-07-24T09:24:57.357Z,54.86
2023-07-24T09:27:29.773Z,56.47
2023-07-24T09:29:58.706Z,57.95
2023-07-24T09:32:27.393Z,58.67
2023-07-24T09:34:57.355Z,57.17
2023-07-24T09:37:29.911Z,58.03
2023-07-24T09:39:59.552Z,58.97
2023-07-24T09:42:52.880Z,58.51
2023-07-24T09:45:26.938Z,58.68
2023-07-24T09:47:59.316Z,58.68
2023-07-24T09:50:29.725Z,58.08
2023-07-24T09:52:59.025Z,55.58
2023-07-24T09:55:35.886Z,55.24
2023-07-24T09:58:03.342Z,53.00
2023-07-24T10:00:32.044Z,50.18
2023-07-24T10:02:59.900Z,49.05
2023-07-24T10:05:26.815Z,47.65
2023-07-24T10:07:53.792Z,45.61
2023-07-24T10:10:22.210Z,43.46
2023-07-24T10:12:49.576Z,42.23
2023-07-24T10:15:16.350Z,42.23
2023-07-24T10:17:43.397Z,41.53
2023-07-24T10:20:12.144Z,40.77
2023-07-24T10:22:43.248Z,41.39
2023-07-24T10:25:11.770Z,44.50
2023-07-24T10:27:47.253Z,44.42
2023-07-24T10:30:34.206Z,42.54
2023-07-24T10:33:15.048Z,40.59
2023-07-24T10:35:47.481Z,39.68
2023-07-24T10:38:16.333Z,40.16
2023-07-24T10:40:44.429Z,40.37
2023-07-24T10:43:13.610Z,41.32
2023-07-24T10:45:41.211Z,42.68
2023-07-24T10:48:09.852Z,42.80
2023-07-24T10:50:44.083Z,42.75
2023-07-24T10:53:11.738Z,42.52
2023-07-24T10:55:38.505Z,41.73
2023-07-24T10:58:04.999Z,41.17
2023-07-24T11:00:31.825Z,40.63
2023-07-24T11:02:58.815Z,40.38
2023-07-24T11:05:25.688Z,41.90
2023-07-24T11:07:52.304Z,42.43
2023-07-24T11:10:23.875Z,42.01
2023-07-24T11:12:52.534Z,41.51
2023-07-24T11:15:26.159Z,42.65
2023-07-24T11:17:52.838Z,43.75
2023-07-24T11:20:19.681Z,44.14
2023-07-24T11:22:46.191Z,44.59
2023-07-24T11:25:13.596Z,45.35
2023-07-24T11:27:43.004Z,45.76
2023-07-24T11:30:10.357Z,46.84
2023-07-24T11:32:39.586Z,47.00
2023-07-24T11:35:06.778Z,47.95
2023-07-24T11:37:33.639Z,47.95
2023-07-24T11:40:05.707Z,47.25
2023-07-24T11:42:32.418Z,46.42
2023-07-24T11:45:03.391Z,46.06
2023-07-24T11:47:31.173Z,46.88
2023-07-24T11:50:01.817Z,47.43
2023-07-24T11:52:44.541Z,47.10
2023-07-24T11:55:13.892Z,47.40
2023-07-24T11:57:40.464Z,46.97
2023-07-24T12:00:19.200Z,46.53
2023-07-24T12:02:46.195Z,46.70
2023-07-24T12:05:12.753Z,47.29
2023-07-24T12:07:39.375Z,48.10
2023-07-24T12:10:11.064Z,48.76
2023-07-24T12:12:44.090Z,49.33
2023-07-24T12:15:11.622Z,49.82
2023-07-24T12:17:38.520Z,50.84
2023-07-24T12:20:12.182Z,52.23
2023-07-24T12:22:39.871Z,56.83
2023-07-24T12:25:07.560Z,58.56
2023-07-24T12:27:34.541Z,61.58
2023-07-24T12:30:01.618Z,64.41
2023-07-24T12:32:28.317Z,67.76
2023-07-24T12:34:55.004Z,70.78
2023-07-24T12:37:21.764Z,77.94
2023-07-24T12:39:49.747Z,97.21
2023-07-24T12:42:16.567Z,100.00
2023-07-24T12:44:44.204Z,100.00
2023-07-24T12:47:12.023Z,100.00
2023-07-24T12:49:38.970Z,100.00
2023-07-24T12:52:06.673Z,100.00
2023-07-24T12:54:50.633Z,100.00
2023-07-24T12:57:19.826Z,100.00
2023-07-24T12:59:46.423Z,100.00
2023-07-24T13:02:13.028Z,100.00
2023-07-24T13:04:39.776Z,100.00
2023-07-24T13:07:06.391Z,100.00
2023-07-24T13:09:32.906Z,100.00
2023-07-24T13:11:59.382Z,100.00
2023-07-24T13:14:25.891Z,100.00
2023-07-24T13:16:52.595Z,100.00
2023-07-24T13:19:21.482Z,100.00
2023-07-24T13:21:48.290Z,100.00
2023-07-24T13:24:15.255Z,100.00
2023-07-24T13:26:41.852Z,100.00
2023-07-24T13:29:08.331Z,100.00
2023-07-24T13:31:34.895Z,100.00
2023-07-24T13:34:01.533Z,100.00
2023-07-24T13:36:28.407Z,100.00
2023-07-24T13:38:55.207Z,100.00
2023-07-24T13:41:21.722Z,100.00
2023-07-24T13:43:48.437Z,100.00
2023-07-24T13:46:15.142Z,100.00
2023-07-24T13:48:41.819Z,100.00
2023-07-24T13:51:08.587Z,100.00
2023-07-24T13:53:35.074Z,100.00
2023-07-24T13:56:01.608Z,100.00
2023-07-24T13:58:28.110Z,100.00
2023-07-24T14:00:54.685Z,100.00
2023-07-24T14:03:21.373Z,100.00
2023-07-24T14:05:47.989Z,100.00
2023-07-24T14:08:14.580Z,100.00
2023-07-24T14:10:41.154Z,100.00
2023-07-24T14:13:07.625Z,100.00
2023-07-24T14:15:34.228Z,100.00
2023-07-24T14:18:00.763Z,100.00
2023-07-24T14:20:27.604Z,100.00
2023-07-24T14:22:55.160Z,100.00
2023-07-24T14:25:21.802Z,98.34
2023-07-24T14:27:48.288Z,97.34
2023-07-24T14:30:15.643Z,95.21
2023-07-24T14:32:43.392Z,95.71
2023-07-24T14:35:09.971Z,96.61
2023-07-24T14:37:36.538Z,97.71
2023-07-24T14:40:03.676Z,98.98
2023-07-24T14:42:31.136Z,100.00
2023-07-24T14:45:02.773Z,100.00
2023-07-24T14:47:30.421Z,100.00
2023-07-24T14:49:59.011Z,100.00
2023-07-24T14:52:25.639Z,100.00
2023-07-24T14:54:52.128Z,100.00
2023-07-24T14:57:24.793Z,100.00
2023-07-24T14:59:52.471Z,100.00
2023-07-24T15:02:19.849Z,100.00
2023-07-24T15:04:46.454Z,100.00
2023-07-24T15:07:13.008Z,100.00
2023-07-24T15:09:39.500Z,100.00
2023-07-24T15:12:06.286Z,100.00
2023-07-24T15:14:32.923Z,100.00
2023-07-24T15:16:59.498Z,100.00
2023-07-24T15:19:26.003Z,100.00
2023-07-24T15:21:52.620Z,100.00
2023-07-24T15:24:19.441Z,100.00
2023-07-24T15:26:46.804Z,100.00
2023-07-24T15:29:18.934Z,100.00
2023-07-24T15:31:46.143Z,100.00
2023-07-24T15:34:13.576Z,100.00
2023-07-24T15:36:40.266Z,99.49
2023-07-24T15:39:06.829Z,96.12
2023-07-24T15:41:33.884Z,93.26
2023-07-24T15:44:00.802Z,92.99
2023-07-24T15:46:32.858Z,95.31
2023-07-24T15:49:00.280Z,96.18
2023-07-24T15:51:27.439Z,92.76
2023-07-24T15:53:55.730Z,94.94
2023-07-24T15:56:22.386Z,97.11
2023-07-24T15:58:50.379Z,97.38
2023-07-24T16:01:16.957Z,93.59
2023-07-24T16:03:44.641Z,91.96
2023-07-24T16:06:13.684Z,89.81
2023-07-24T16:08:40.212Z,89.47
2023-07-24T16:11:09.657Z,88.59
2023-07-24T16:13:37.556Z,84.58
2023-07-24T16:16:04.530Z,84.26
2023-07-24T16:18:31.211Z,83.95
2023-07-24T16:20:57.739Z,84.04
2023-07-24T16:23:24.315Z,84.44
2023-07-24T16:25:50.870Z,83.88
2023-07-24T16:28:17.859Z,85.04
2023-07-24T16:30:44.572Z,83.83
2023-07-24T16:33:11.122Z,83.32
2023-07-24T16:35:38.472Z,83.56
2023-07-24T16:38:07.090Z,84.64
2023-07-24T16:40:35.449Z,83.89
2023-07-24T16:43:01.940Z,85.01
2023-07-24T16:45:35.748Z,86.58
2023-07-24T16:48:03.939Z,88.90
2023-07-24T16:50:31.601Z,91.50
2023-07-24T16:52:58.063Z,95.01
2023-07-24T16:55:25.559Z,98.50
2023-07-24T16:57:52.976Z,99.20
2023-07-24T17:00:19.507Z,100.00
2023-07-24T17:02:46.061Z,98.22
2023-07-24T17:05:13.512Z,100.00
2023-07-24T17:07:39.999Z,100.00
2023-07-24T17:10:08.714Z,100.00
2023-07-24T17:12:35.268Z,100.00
2023-07-24T17:15:02.150Z,100.00
2023-07-24T17:17:28.823Z,100.00
2023-07-24T17:19:55.406Z,100.00
2023-07-24T17:22:21.924Z,100.00
2023-07-24T17:24:48.670Z,100.00
2023-07-24T17:27:15.273Z,100.00
2023-07-24T17:29:41.944Z,100.00
2023-07-24T17:32:09.665Z,100.00
2023-07-24T17:34:36.195Z,100.00
2023-07-24T17:37:02.921Z,100.00
2023-07-24T17:39:29.597Z,100.00
2023-07-24T17:41:56.073Z,100.00
2023-07-24T17:44:23.417Z,100.00
2023-07-24T17:46:49.969Z,100.00
2023-07-24T17:49:16.452Z,100.00
2023-07-24T17:51:43.765Z,100.00
2023-07-24T17:54:10.293Z,100.00
2023-07-24T17:56:36.763Z,100.00
2023-07-24T17:59:03.320Z,100.00
2023-07-24T18:01:31.306Z,100.00
2023-07-24T18:03:57.955Z,100.00
2023-07-24T18:06:24.642Z,100.00
2023-07-24T18:08:51.118Z,100.00
2023-07-24T18:11:17.819Z,100.00
2023-07-24T18:13:45.801Z,100.00
2023-07-24T18:16:12.518Z,100.00
2023-07-24T18:18:39.013Z,100.00
2023-07-24T18:21:08.561Z,100.00
2023-07-24T18:23:36.056Z,100.00
2023-07-24T18:26:02.848Z,100.00
2023-07-24T18:28:29.438Z,100.00
2023-07-24T18:30:56.285Z,100.00
2023-07-24T18:33:22.992Z,100.00
2023-07-24T18:35:51.166Z,100.00
2023-07-24T18:38:19.091Z,100.00
2023-07-24T18:40:45.640Z,100.00
2023-07-24T18:43:12.107Z,100.00
2023-07-24T18:45:39.478Z,100.00
2023-07-24T18:48:06.152Z,100.00
2023-07-24T18:50:32.657Z,100.00
2023-07-24T18:52:59.104Z,100.00
2023-07-24T18:55:25.703Z,100.00
2023-07-24T18:57:52.266Z,100.00
2023-07-24T19:00:18.941Z,100.00
2023-07-24T19:02:45.872Z,100.00
2023-07-24T19:05:13.344Z,100.00
2023-07-24T19:07:39.890Z,100.00
2023-07-24T19:10:11.418Z,100.00
2023-07-24T19:12:38.875Z,100.00
2023-07-24T19:15:06.906Z,100.00
2023-07-24T19:17:33.806Z,100.00
2023-07-24T19:20:00.997Z,100.00
2023-07-24T19:22:27.548Z,100.00
2023-07-24T19:24:55.196Z,100.00
2023-07-24T19:27:22.784Z,100.00
2023-07-24T19:29:49.459Z,100.00
2023-07-24T19:32:16.006Z,100.00
2023-07-24T19:34:44.861Z,100.00
2023-07-24T19:37:12.164Z,100.00
2023-07-24T19:39:41.885Z,100.00
2023-07-24T19:42:10.563Z,100.00
2023-07-24T19:44:38.418Z,100.00
2023-07-24T19:47:05.306Z,100.00
2023-07-24T19:49:34.294Z,100.00
2023-07-24T19:52:01.461Z,100.00
2023-07-24T19:54:30.056Z,100.00
2023-07-24T19:56:56.859Z,100.00
2023-07-24T19:59:23.639Z,100.00
2023-07-24T20:01:50.109Z,100.00
2023-07-24T20:04:16.643Z,100.00
2023-07-24T20:06:43.197Z,100.00
2023-07-24T20:09:09.666Z,100.00
2023-07-24T20:11:36.343Z,100.00
2023-07-24T20:14:03.066Z,100.00
2023-07-24T20:16:30.121Z,100.00
2023-07-24T20:18:56.704Z,100.00
2023-07-24T20:21:23.265Z,100.00
2023-07-24T20:23:50.775Z,100.00
2023-07-24T20:26:17.370Z,100.00
2023-07-24T20:28:45.350Z,100.00
2023-07-24T20:31:12.314Z,100.00
2023-07-24T20:33:39.226Z,100.00
2023-07-24T20:36:09.910Z,100.00
2023-07-24T20:38:38.087Z,100.00
2023-07-24T20:41:04.588Z,100.00
2023-07-24T20:43:31.253Z,100.00
2023-07-24T20:48:25.852Z,100.00
2023-07-24T20:50:56.434Z,100.00
2023-07-24T20:53:22.921Z,100.00
2023-07-24T20:55:49.412Z,100.00
2023-07-24T20:58:15.921Z,100.00
2023-07-24T21:00:42.405Z,100.00
2023-07-24T21:03:09.013Z,100.00
2023-07-24T21:05:37.784Z,100.00
2023-07-24T21:08:04.887Z,100.00
2023-07-24T21:10:31.388Z,100.00
2023-07-24T21:12:57.857Z,100.00
2023-07-24T21:15:24.413Z,100.00
2023-07-24T21:17:51.215Z,100.00
2023-07-24T21:20:17.868Z,100.00
2023-07-24T21:22:44.342Z,100.00
2023-07-24T21:25:11.635Z,100.00
2023-07-24T21:27:38.287Z,100.00
2023-07-24T21:30:07.513Z,100.00
2023-07-24T21:32:34.201Z,100.00
2023-07-24T21:35:00.873Z,100.00
2023-07-24T21:37:27.381Z,100.00
2023-07-24T21:39:53.819Z,100.00
2023-07-24T21:42:20.356Z,100.00
2023-07-24T21:44:46.877Z,100.00
2023-07-24T21:47:13.501Z,100.00
2023-07-24T21:49:40.260Z,100.00
2023-07-24T21:52:07.287Z,100.00
2023-07-24T21:54:33.801Z,100.00
2023-07-24T21:57:00.529Z,100.00
2023-07-24T21:59:27.014Z,100.00
2023-07-24T22:01:53.525Z,100.00
2023-07-24T22:04:21.403Z,100.00
2023-07-24T22:06:47.900Z,100.00
2023-07-24T22:09:14.377Z,100.00
2023-07-24T22:11:43.147Z,100.00
2023-07-24T22:14:09.923Z,100.00
2023-07-24T22:16:36.479Z,100.00
2023-07-24T22:19:03.073Z,100.00
2023-07-24T22:21:29.876Z,100.00
2023-07-24T22:23:56.669Z,100.00
2023-07-24T22:26:23.203Z,100.00
2023-07-24T22:28:49.701Z,100.00
2023-07-24T22:31:16.319Z,100.00
2023-07-24T22:33:42.832Z,100.00
2023-07-24T22:36:10.192Z,100.00
2023-07-24T22:38:36.721Z,100.00
2023-07-24T22:41:10.688Z,100.00
2023-07-24T22:43:37.316Z,100.00
2023-07-24T22:46:04.767Z,100.00
2023-07-24T22:48:31.355Z,100.00
2023-07-24T22:50:57.905Z,100.00
2023-07-24T22:53:24.411Z,100.00
2023-07-24T22:55:50.978Z,100.00
2023-07-24T22:58:17.526Z,100.00
2023-07-24T23:00:44.043Z,100.00
2023-07-24T23:03:11.389Z,100.00
2023-07-24T23:05:37.996Z,100.00
2023-07-24T23:08:04.802Z,100.00
2023-07-24T23:10:31.295Z,100.00
2023-07-24T23:12:57.758Z,100.00
2023-07-24T23:15:24.329Z,100.00
2023-07-24T23:17:50.924Z,100.00
2023-07-24T23:20:17.490Z,100.00
2023-07-24T23:22:44.060Z,100.00
2023-07-24T23:25:11.354Z,100.00
2023-07-24T23:27:37.850Z,100.00
2023-07-24T23:30:05.579Z,100.00
2023-07-24T23:32:32.132Z,100.00
2023-07-24T23:34:58.636Z,100.00
2023-07-24T23:37:25.242Z,100.00
2023-07-24T23:39:52.632Z,100.00
2023-07-24T23:42:19.339Z,100.00
2023-07-24T23:44:45.816Z,100.00
2023-07-24T23:47:12.539Z,100.00
2023-07-24T23:49:39.053Z,100.00
2023-07-24T23:52:06.070Z,100.00
2023-07-24T23:54:32.593Z,100.00
2023-07-24T23:56:59.119Z,100.00
2023-07-24T23:59:25.611Z,100.00
